Time;durP1;ratioP1;P1;durP2;ratioP2;P2;SDS_P1;SDS_P2;PMS_P1;PMS_P2;Temp;Humidity;BMP_temperature;BMP_pressure;BME280_temperature;BME280_humidity;BME280_pressure;Samples;Min_cycle;Max_cycle;Signal;HPM_P1;HPM_P2
2023/04/26 00:01:45;;;;;;;11.20;5.00;;;;;;;;;;10528212;28;20063;-80
2023/04/26 00:06:48;;;;;;;15.37;6.03;;;;;;;;;;10529460;28;20043;-79
2023/04/26 00:11:49;;;;;;;12.10;5.33;;;;;;;;;;10528076;28;20039;-80
2023/04/26 00:16:50;;;;;;;10.77;5.03;;;;;;;;;;10527601;28;20036;-80
2023/04/26 00:21:51;;;;;;;10.40;4.03;;;;;;;;;;10528143;28;20085;-81
2023/04/26 00:26:55;;;;;;;13.40;4.83;;;;;;;;;;10527648;28;20081;-81
2023/04/26 00:31:56;;;;;;;15.93;5.30;;;;;;;;;;10527781;28;20132;-80
2023/04/26 00:36:59;;;;;;;13.13;4.63;;;;;;;;;;10527774;28;20028;-80
2023/04/26 00:42:02;;;;;;;13.53;4.80;;;;;;;;;;10526973;28;20406;-80
2023/04/26 00:47:03;;;;;;;15.77;5.27;;;;;;;;;;10527158;28;20390;-80
2023/04/26 00:52:04;;;;;;;13.83;5.00;;;;;;;;;;10526188;28;20054;-80
2023/04/26 00:57:08;;;;;;;13.53;5.30;;;;;;;;;;10527064;28;20038;-80
2023/04/26 01:02:09;;;;;;;10.70;4.37;;;;;;;;;;10526572;28;20062;-80
2023/04/26 01:07:14;;;;;;;10.77;4.53;;;;;;;;;;10526668;28;20032;-80
2023/04/26 01:12:16;;;;;;;11.73;4.47;;;;;;;;;;10526549;28;20058;-79
2023/04/26 01:17:17;;;;;;;16.67;5.40;;;;;;;;;;10526432;28;20032;-80
2023/04/26 01:22:22;;;;;;;14.90;4.10;;;;;;;;;;10526313;28;20032;-82
2023/04/26 01:27:26;;;;;;;11.95;4.65;;;;;;;;;;10527541;28;20032;-80
2023/04/26 01:32:27;;;;;;;11.23;4.20;;;;;;;;;;10526998;28;20506;-80
2023/04/26 01:37:28;;;;;;;14.90;4.57;;;;;;;;;;10531461;28;20024;-81
2023/04/26 01:42:29;;;;;;;9.43;4.00;;;;;;;;;;10534918;28;20113;-80
2023/04/26 01:47:32;;;;;;;11.00;4.20;;;;;;;;;;10534660;28;20040;-81
2023/04/26 01:52:33;;;;;;;15.60;4.63;;;;;;;;;;10534036;28;20040;-80
2023/04/26 01:57:34;;;;;;;12.50;5.10;;;;;;;;;;10535585;28;20032;-80
2023/04/26 02:02:35;;;;;;;9.43;4.07;;;;;;;;;;10534638;28;20048;-80
2023/04/26 02:07:36;;;;;;;8.07;3.73;;;;;;;;;;10534832;28;20055;-80
2023/04/26 02:12:37;;;;;;;12.00;4.00;;;;;;;;;;10535298;28;20068;-80
2023/04/26 02:17:40;;;;;;;9.90;3.70;;;;;;;;;;10534463;28;20115;-80
2023/04/26 02:22:44;;;;;;;12.23;3.93;;;;;;;;;;10534467;28;20032;-80
2023/04/26 02:27:47;;;;;;;10.20;3.97;;;;;;;;;;10533937;28;20042;-81
2023/04/26 02:32:48;;;;;;;6.57;3.50;;;;;;;;;;10533864;28;20051;-80
2023/04/26 02:37:51;;;;;;;10.47;3.70;;;;;;;;;;10534698;28;20028;-80
2023/04/26 02:42:52;;;;;;;11.27;4.40;;;;;;;;;;10531063;28;20151;-80
2023/04/26 02:47:53;;;;;;;8.93;3.67;;;;;;;;;;10532226;28;20410;-81
2023/04/26 02:52:54;;;;;;;8.87;4.23;;;;;;;;;;10532475;28;20102;-80
2023/04/26 02:57:59;;;;;;;15.60;4.13;;;;;;;;;;10533331;28;20145;-81
2023/04/26 03:03:00;;;;;;;8.10;2.78;;;;;;;;;;10534696;28;20116;-82
2023/04/26 03:08:01;;;;;;;11.33;4.47;;;;;;;;;;10535044;28;20027;-82
2023/04/26 03:13:04;;;;;;;14.90;4.73;;;;;;;;;;10531213;28;20032;-83
2023/04/26 03:18:05;;;;;;;13.70;5.13;;;;;;;;;;10528084;28;20032;-82
2023/04/26 03:23:06;;;;;;;9.87;3.93;;;;;;;;;;10529226;28;20066;-83
2023/04/26 03:28:13;;;;;;;13.07;4.77;;;;;;;;;;10528834;28;20024;-82
2023/04/26 03:33:14;;;;;;;10.17;4.47;;;;;;;;;;10517925;28;20040;-84
2023/04/26 03:38:15;;;;;;;12.90;4.70;;;;;;;;;;10529602;28;20028;-84
2023/04/26 03:43:16;;;;;;;15.47;5.47;;;;;;;;;;10511321;28;20031;-82
2023/04/26 03:48:19;;;;;;;19.17;5.17;;;;;;;;;;10528211;28;20039;-80
2023/04/26 03:53:20;;;;;;;14.03;5.10;;;;;;;;;;10529520;28;20148;-85
2023/04/26 03:58:21;;;;;;;16.80;5.93;;;;;;;;;;10525581;28;20103;-85
2023/04/26 04:03:29;;;;;;;11.00;4.53;;;;;;;;;;10527760;28;20032;-81
2023/04/26 04:08:30;;;;;;;11.17;6.13;;;;;;;;;;10528137;28;20024;-83
2023/04/26 04:13:31;;;;;;;14.13;5.17;;;;;;;;;;10528484;28;20061;-87
2023/04/26 04:18:32;;;;;;;8.50;4.23;;;;;;;;;;10527135;28;20540;-85
2023/04/26 04:23:33;;;;;;;11.43;4.93;;;;;;;;;;10527897;28;20020;-83
2023/04/26 04:28:34;;;;;;;13.07;4.43;;;;;;;;;;10528574;28;20058;-84
2023/04/26 04:33:35;;;;;;;16.37;5.60;;;;;;;;;;10524389;28;20727;-84
2023/04/26 04:38:37;;;;;;;12.17;4.63;;;;;;;;;;10527940;28;20026;-83
2023/04/26 04:43:38;;;;;;;12.97;4.80;;;;;;;;;;10507694;28;20126;-84
2023/04/26 04:48:39;;;;;;;17.47;6.00;;;;;;;;;;10527266;28;20054;-83
2023/04/26 04:53:40;;;;;;;16.53;5.17;;;;;;;;;;10527466;28;20032;-82
2023/04/26 04:58:41;;;;;;;13.43;5.00;;;;;;;;;;10526465;28;20032;-83
2023/04/26 05:03:42;;;;;;;8.83;4.30;;;;;;;;;;10518307;28;20048;-83
2023/04/26 05:08:43;;;;;;;13.63;5.10;;;;;;;;;;10486701;28;20028;-83
2023/04/26 05:13:44;;;;;;;10.43;4.03;;;;;;;;;;10500016;28;20089;-81
2023/04/26 05:18:46;;;;;;;9.03;3.60;;;;;;;;;;10525404;28;20138;-83
2023/04/26 05:23:47;;;;;;;12.50;4.37;;;;;;;;;;10526274;28;20387;-84
2023/04/26 05:28:48;;;;;;;10.27;3.87;;;;;;;;;;10508824;28;20027;-83
2023/04/26 05:33:49;;;;;;;10.97;3.77;;;;;;;;;;10525937;28;20059;-82
2023/04/26 05:38:50;;;;;;;10.07;3.63;;;;;;;;;;10521309;28;20029;-83
2023/04/26 05:43:51;;;;;;;12.23;4.00;;;;;;;;;;10509023;28;20035;-82
2023/04/26 05:48:52;;;;;;;10.07;4.97;;;;;;;;;;10526093;28;20107;-84
2023/04/26 05:53:53;;;;;;;12.43;4.40;;;;;;;;;;10525575;28;20543;-83
2023/04/26 05:58:54;;;;;;;9.50;4.30;;;;;;;;;;10526122;28;20419;-83
2023/04/26 06:03:55;;;;;;;10.73;3.97;;;;;;;;;;10524202;28;20044;-83
2023/04/26 06:08:56;;;;;;;10.87;4.00;;;;;;;;;;10525846;28;20460;-84
2023/04/26 06:13:57;;;;;;;20.33;4.80;;;;;;;;;;10526416;28;20040;-84
2023/04/26 06:18:58;;;;;;;14.17;4.07;;;;;;;;;;10525977;28;20077;-84
2023/04/26 06:23:59;;;;;;;13.00;4.50;;;;;;;;;;10530831;28;20787;-83
2023/04/26 06:29:00;;;;;;;10.70;4.17;;;;;;;;;;10514825;28;20024;-85
2023/04/26 06:34:03;;;;;;;11.17;4.47;;;;;;;;;;10532491;28;20048;-84
2023/04/26 06:39:04;;;;;;;12.10;4.37;;;;;;;;;;10505594;28;20323;-84
2023/04/26 06:44:05;;;;;;;16.43;5.17;;;;;;;;;;10529749;28;20032;-84
2023/04/26 06:49:06;;;;;;;12.97;3.63;;;;;;;;;;10532441;28;20417;-83
2023/04/26 06:54:07;;;;;;;9.13;3.07;;;;;;;;;;10531880;28;20194;-84
2023/04/26 06:59:07;;;;;;;7.30;2.27;;;;;;;;;;10513199;28;20039;-83
2023/04/26 07:04:09;;;;;;;5.53;2.53;;;;;;;;;;10532230;28;20048;-84
2023/04/26 07:09:11;;;;;;;7.87;2.90;;;;;;;;;;10531170;28;20031;-84
2023/04/26 07:14:12;;;;;;;9.80;2.67;;;;;;;;;;10531417;28;20558;-84
2023/04/26 07:19:13;;;;;;;5.23;2.33;;;;;;;;;;10531190;28;20035;-84
2023/04/26 07:24:14;;;;;;;6.17;2.23;;;;;;;;;;10530790;28;20028;-84
2023/04/26 07:29:16;;;;;;;7.70;2.50;;;;;;;;;;10530305;28;20479;-84
2023/04/26 07:34:17;;;;;;;6.37;2.30;;;;;;;;;;10528846;28;20035;-84
2023/04/26 07:39:20;;;;;;;7.77;2.60;;;;;;;;;;10529587;28;20020;-84
2023/04/26 07:44:23;;;;;;;8.07;2.73;;;;;;;;;;10507414;28;20059;-86
2023/04/26 07:49:24;;;;;;;5.93;2.17;;;;;;;;;;10529862;28;20036;-84
2023/04/26 07:54:27;;;;;;;4.57;2.00;;;;;;;;;;10511504;28;20044;-83
2023/04/26 07:59:28;;;;;;;9.97;2.07;;;;;;;;;;10511374;28;20035;-84
2023/04/26 08:04:31;;;;;;;10.07;4.70;;;;;;;;;;10529368;28;20059;-84
2023/04/26 08:09:35;;;;;;;8.93;3.23;;;;;;;;;;10528860;28;20038;-83
2023/04/26 08:14:36;;;;;;;7.20;2.90;;;;;;;;;;10529165;28;20062;-83
2023/04/26 08:19:37;;;;;;;7.23;2.47;;;;;;;;;;10528852;28;20031;-83
2023/04/26 08:24:38;;;;;;;5.67;2.20;;;;;;;;;;10529093;28;20040;-83
2023/04/26 08:29:39;;;;;;;6.33;2.33;;;;;;;;;;10528149;28;20032;-84
2023/04/26 08:34:42;;;;;;;6.07;2.20;;;;;;;;;;10528273;28;20039;-85
2023/04/26 08:39:43;;;;;;;3.20;1.50;;;;;;;;;;10514730;28;20028;-84
2023/04/26 08:44:45;;;;;;;9.43;4.13;;;;;;;;;;10522633;28;20035;-83
2023/04/26 08:49:47;;;;;;;14.50;5.57;;;;;;;;;;10527907;28;20490;-84
2023/04/26 08:54:49;;;;;;;16.03;6.33;;;;;;;;;;10527775;28;20494;-84
2023/04/26 08:59:52;;;;;;;4.97;1.80;;;;;;;;;;10526953;28;20028;-83
2023/04/26 09:04:53;;;;;;;6.70;2.10;;;;;;;;;;10527221;28;20087;-83
2023/04/26 09:09:54;;;;;;;6.45;3.15;;;;;;;;;;10508780;28;20458;-84
2023/04/26 09:14:57;;;;;;;1.83;0.90;;;;;;;;;;10527110;28;20586;-84
2023/04/26 09:19:59;;;;;;;0.73;0.63;;;;;;;;;;10525126;28;20717;-84
2023/04/26 09:25:00;;;;;;;3.40;1.40;;;;;;;;;;10524559;28;20035;-85
2023/04/26 09:30:10;;;;;;;8.97;3.57;;;;;;;;;;10526452;28;20053;-84
2023/04/26 09:35:20;;;;;;;7.23;2.73;;;;;;;;;;10524692;28;20040;-84
2023/04/26 09:40:21;;;;;;;2.50;1.50;;;;;;;;;;10525149;28;20552;-85
2023/04/26 09:45:23;;;;;;;19.20;7.63;;;;;;;;;;10526075;28;20119;-85
2023/04/26 09:50:28;;;;;;;38.37;19.83;;;;;;;;;;10525208;28;20059;-85
2023/04/26 09:55:29;;;;;;;8.90;2.53;;;;;;;;;;10512750;28;20115;-86
2023/04/26 10:00:32;;;;;;;8.38;2.92;;;;;;;;;;10531965;28;20051;-85
2023/04/26 10:05:33;;;;;;;12.80;6.90;;;;;;;;;;10531012;28;20051;-86
2023/04/26 10:10:35;;;;;;;11.68;5.22;;;;;;;;;;10532764;28;20561;-86
2023/04/26 10:15:36;;;;;;;14.37;5.13;;;;;;;;;;10532721;28;20089;-85
2023/04/26 10:20:43;;;;;;;3.47;1.70;;;;;;;;;;10531714;28;20028;-83
2023/04/26 10:25:44;;;;;;;6.22;2.05;;;;;;;;;;10532480;28;20036;-85
2023/04/26 10:30:55;;;;;;;6.93;2.10;;;;;;;;;;10532604;28;20042;-83
2023/04/26 10:36:17;;;;;;;7.10;2.55;;;;;;;;;;10512928;28;20040;-85
2023/04/26 10:41:29;;;;;;;10.83;4.00;;;;;;;;;;10519227;28;20460;-84
2023/04/26 10:46:39;;;;;;;5.83;1.80;;;;;;;;;;10530732;28;20480;-82
2023/04/26 10:51:41;;;;;;;10.50;2.57;;;;;;;;;;10531591;28;20024;-83
2023/04/26 10:56:42;;;;;;;4.32;1.85;;;;;;;;;;10530897;28;20097;-83
2023/04/26 11:01:45;;;;;;;7.05;2.35;;;;;;;;;;10530376;28;20691;-83
2023/04/26 11:06:56;;;;;;;3.35;1.20;;;;;;;;;;10529815;28;20518;-84
2023/04/26 11:11:59;;;;;;;4.75;1.17;;;;;;;;;;10530359;28;20032;-86
2023/04/26 11:17:07;;;;;;;4.40;1.60;;;;;;;;;;10529863;28;20111;-84
2023/04/26 11:22:10;;;;;;;4.18;1.60;;;;;;;;;;10529682;28;20106;-84
2023/04/26 11:27:11;;;;;;;3.38;1.08;;;;;;;;;;10528988;28;20036;-81
2023/04/26 11:32:13;;;;;;;3.17;1.30;;;;;;;;;;10529706;28;20067;-82
2023/04/26 11:37:17;;;;;;;7.45;2.70;;;;;;;;;;10520984;28;20055;-82
2023/04/26 11:42:26;;;;;;;9.57;3.08;;;;;;;;;;10530358;28;20069;-83
2023/04/26 11:47:29;;;;;;;8.85;3.97;;;;;;;;;;10529624;28;20040;-83
2023/04/26 11:52:32;;;;;;;7.70;2.35;;;;;;;;;;10527620;28;20044;-83
2023/04/26 11:57:34;;;;;;;5.88;2.42;;;;;;;;;;10528608;28;20028;-82
2023/04/26 12:02:37;;;;;;;10.65;2.72;;;;;;;;;;10529271;28;20056;-82
2023/04/26 12:07:38;;;;;;;13.65;5.70;;;;;;;;;;10530964;28;20027;-82
2023/04/26 12:12:44;;;;;;;2.45;1.10;;;;;;;;;;10510521;28;20786;-82
2023/04/26 12:17:46;;;;;;;;;;;;;;;;;;10500455;28;20032;-83
2023/04/26 12:23:07;;;;;;;5.40;2.00;;;;;;;;;;10526837;28;19982;-82
2023/04/26 12:28:12;;;;;;;5.85;1.48;;;;;;;;;;10527363;28;20024;-82
2023/04/26 12:33:13;;;;;;;3.67;0.90;;;;;;;;;;10529795;28;20028;-82
2023/04/26 12:38:14;;;;;;;12.05;4.38;;;;;;;;;;10526372;28;20274;-82
2023/04/26 12:43:18;;;;;;;4.32;1.85;;;;;;;;;;10527805;28;20024;-82
2023/04/26 12:48:19;;;;;;;2.60;0.95;;;;;;;;;;10526577;28;20647;-82
2023/04/26 12:53:20;;;;;;;4.72;1.70;;;;;;;;;;10525353;28;20051;-82
2023/04/26 12:58:21;;;;;;;6.32;1.30;;;;;;;;;;10526510;28;20023;-82
2023/04/26 13:03:22;;;;;;;3.40;1.15;;;;;;;;;;10536955;28;20391;-82
2023/04/26 13:08:23;;;;;;;5.38;1.50;;;;;;;;;;10540954;28;20028;-83
2023/04/26 13:13:24;;;;;;;5.07;1.30;;;;;;;;;;10512226;28;20066;-82
2023/04/26 13:18:25;;;;;;;3.53;0.97;;;;;;;;;;10521735;28;20031;-81
2023/04/26 13:23:26;;;;;;;2.43;1.20;;;;;;;;;;10508454;28;20038;-82
2023/04/26 13:28:27;;;;;;;4.10;1.42;;;;;;;;;;10532572;28;20035;-82
2023/04/26 13:33:28;;;;;;;5.00;1.33;;;;;;;;;;10532393;28;20036;-82
2023/04/26 13:38:29;;;;;;;5.93;1.55;;;;;;;;;;10535121;28;20032;-83
2023/04/26 13:43:30;;;;;;;4.43;1.25;;;;;;;;;;10515961;28;20040;-82
2023/04/26 13:48:31;;;;;;;6.07;1.90;;;;;;;;;;10534196;28;20040;-82
2023/04/26 13:53:32;;;;;;;8.70;4.50;;;;;;;;;;10533122;28;20101;-81
2023/04/26 13:58:33;;;;;;;16.98;6.30;;;;;;;;;;10547622;28;20032;-81
2023/04/26 14:03:34;;;;;;;5.25;2.38;;;;;;;;;;10532297;28;20063;-83
2023/04/26 14:08:35;;;;;;;7.90;2.72;;;;;;;;;;10533278;28;20023;-81
2023/04/26 14:13:36;;;;;;;15.93;5.77;;;;;;;;;;10533328;28;20126;-81
2023/04/26 14:18:43;;;;;;;5.35;1.83;;;;;;;;;;10532298;28;20020;-81
2023/04/26 14:23:44;;;;;;;3.88;1.45;;;;;;;;;;10532895;28;20031;-83
2023/04/26 14:28:46;;;;;;;4.95;2.10;;;;;;;;;;10531475;28;20024;-83
2023/04/26 14:33:47;;;;;;;8.50;3.42;;;;;;;;;;10532082;28;20040;-83
2023/04/26 14:38:48;;;;;;;6.50;2.08;;;;;;;;;;10531378;28;20028;-82
2023/04/26 14:43:50;;;;;;;5.97;1.98;;;;;;;;;;10530315;28;20036;-82
2023/04/26 14:48:51;;;;;;;4.67;1.80;;;;;;;;;;10531922;28;20043;-82
2023/04/26 14:53:51;;;;;;;11.90;4.97;;;;;;;;;;10529703;28;20051;-82
2023/04/26 14:58:53;;;;;;;7.80;2.42;;;;;;;;;;10528845;28;20541;-82
2023/04/26 15:03:55;;;;;;;9.40;3.65;;;;;;;;;;10529640;28;20075;-82
2023/04/26 15:08:56;;;;;;;14.95;5.88;;;;;;;;;;10530761;28;20118;-83
2023/04/26 15:13:57;;;;;;;6.70;2.60;;;;;;;;;;10533559;28;20628;-83
2023/04/26 15:18:58;;;;;;;8.85;3.70;;;;;;;;;;10530709;28;20020;-83
2023/04/26 15:23:59;;;;;;;5.65;2.53;;;;;;;;;;10511228;28;20024;-83
2023/04/26 15:29:00;;;;;;;13.15;4.57;;;;;;;;;;10529085;28;20247;-83
2023/04/26 15:34:01;;;;;;;13.15;5.22;;;;;;;;;;10530013;28;20113;-82
2023/04/26 15:39:02;;;;;;;9.13;2.40;;;;;;;;;;10529047;28;20036;-82
2023/04/26 15:44:03;;;;;;;5.28;1.67;;;;;;;;;;10529278;28;20036;-81
2023/04/26 15:49:04;;;;;;;5.40;1.48;;;;;;;;;;10528727;28;20031;-82
2023/04/26 15:54:06;;;;;;;3.90;1.50;;;;;;;;;;10527477;28;20040;-81
2023/04/26 15:59:07;;;;;;;3.83;1.63;;;;;;;;;;10528596;28;20123;-81
2023/04/26 16:04:08;;;;;;;5.00;2.30;;;;;;;;;;10529492;28;20694;-82
2023/04/26 16:09:13;;;;;;;5.63;1.70;;;;;;;;;;10529058;28;20028;-82
2023/04/26 16:14:14;;;;;;;5.77;2.30;;;;;;;;;;10529342;28;20039;-82
2023/04/26 16:19:16;;;;;;;6.47;3.07;;;;;;;;;;10527836;28;20036;-82
2023/04/26 16:24:20;;;;;;;15.07;4.83;;;;;;;;;;10528899;28;20039;-82
2023/04/26 16:29:29;;;;;;;13.67;6.07;;;;;;;;;;10469017;28;20402;-81
2023/04/26 16:34:30;;;;;;;11.60;5.00;;;;;;;;;;10479916;28;20117;-81
2023/04/26 16:39:31;;;;;;;20.67;7.93;;;;;;;;;;10465687;28;20021;-82
2023/04/26 16:44:32;;;;;;;19.47;7.33;;;;;;;;;;10431572;28;20028;-81
2023/04/26 16:49:33;;;;;;;14.23;5.43;;;;;;;;;;10452415;28;20119;-81
2023/04/26 16:54:34;;;;;;;12.73;4.37;;;;;;;;;;10438190;28;20787;-81
2023/04/26 16:59:35;;;;;;;14.20;5.10;;;;;;;;;;10436531;28;20064;-81
2023/04/26 17:04:36;;;;;;;13.53;4.30;;;;;;;;;;10436846;28;20036;-81
2023/04/26 17:09:37;;;;;;;7.07;4.03;;;;;;;;;;10435371;28;20025;-82
2023/04/26 17:14:38;;;;;;;10.67;3.40;;;;;;;;;;10436197;28;20052;-81
2023/04/26 17:19:39;;;;;;;7.43;3.13;;;;;;;;;;10435766;28;20224;-82
2023/04/26 17:24:41;;;;;;;6.50;2.77;;;;;;;;;;10445669;28;20119;-83
2023/04/26 17:29:44;;;;;;;7.47;3.57;;;;;;;;;;10447203;28;20049;-82
2023/04/26 17:34:45;;;;;;;8.53;3.30;;;;;;;;;;10433818;28;20087;-82
2023/04/26 17:39:46;;;;;;;5.13;2.43;;;;;;;;;;10426476;28;20029;-81
2023/04/26 17:44:47;;;;;;;6.80;3.00;;;;;;;;;;10412385;28;20033;-82
2023/04/26 17:49:48;;;;;;;6.73;2.80;;;;;;;;;;10437801;28;20123;-83
2023/04/26 17:54:49;;;;;;;11.83;5.43;;;;;;;;;;10422040;28;20037;-83
2023/04/26 17:59:51;;;;;;;20.70;8.50;;;;;;;;;;10409153;28;20608;-83
2023/04/26 18:04:53;;;;;;;13.27;5.27;;;;;;;;;;10433456;28;20116;-82
2023/04/26 18:09:54;;;;;;;12.37;3.90;;;;;;;;;;10424764;28;20557;-82
2023/04/26 18:14:56;;;;;;;21.33;6.93;;;;;;;;;;10420181;28;20032;-82
2023/04/26 18:19:58;;;;;;;31.73;11.00;;;;;;;;;;10427095;28;20044;-82
2023/04/26 18:24:59;;;;;;;30.80;13.07;;;;;;;;;;10437062;28;20512;-82
2023/04/26 18:30:00;;;;;;;27.30;11.50;;;;;;;;;;10416066;28;20029;-82
2023/04/26 18:35:04;;;;;;;24.63;10.40;;;;;;;;;;10414440;28;20017;-82
2023/04/26 18:40:06;;;;;;;26.83;12.43;;;;;;;;;;10430995;28;20116;-82
2023/04/26 18:45:08;;;;;;;26.87;10.27;;;;;;;;;;10412063;28;20122;-83
2023/04/26 18:50:09;;;;;;;18.47;9.10;;;;;;;;;;10413294;28;20029;-83
2023/04/26 18:55:10;;;;;;;14.37;7.27;;;;;;;;;;10427969;28;20044;-85
2023/04/26 19:00:11;;;;;;;17.60;6.87;;;;;;;;;;10412554;28;20036;-87
2023/04/26 19:05:12;;;;;;;13.47;5.57;;;;;;;;;;10405929;28;20037;-84
2023/04/26 19:10:15;;;;;;;11.37;5.10;;;;;;;;;;10398141;28;20559;-85
2023/04/26 19:15:18;;;;;;;15.37;5.77;;;;;;;;;;10400715;28;20134;-84
2023/04/26 19:20:21;;;;;;;16.03;6.60;;;;;;;;;;10398319;28;20037;-84
2023/04/26 19:25:23;;;;;;;20.47;6.87;;;;;;;;;;10396593;28;20046;-85
2023/04/26 19:30:24;;;;;;;14.67;5.07;;;;;;;;;;10403531;28;20037;-84
2023/04/26 19:35:27;;;;;;;11.10;4.83;;;;;;;;;;10403047;28;20033;-84
2023/04/26 19:40:28;;;;;;;9.27;3.60;;;;;;;;;;10403521;28;20117;-84
2023/04/26 19:45:29;;;;;;;12.60;4.37;;;;;;;;;;10400796;28;20037;-84
2023/04/26 19:50:30;;;;;;;13.60;4.93;;;;;;;;;;10396088;28;20083;-84
2023/04/26 19:55:32;;;;;;;8.47;3.93;;;;;;;;;;10401369;28;20045;-84
2023/04/26 20:00:37;;;;;;;9.80;4.40;;;;;;;;;;10402163;28;20038;-84
2023/04/26 20:05:38;;;;;;;11.33;4.40;;;;;;;;;;10401755;28;20571;-84
2023/04/26 20:10:41;;;;;;;12.87;5.37;;;;;;;;;;10401656;28;20136;-84
2023/04/26 20:15:44;;;;;;;12.07;5.33;;;;;;;;;;10401566;28;20045;-84
2023/04/26 20:20:46;;;;;;;10.43;5.13;;;;;;;;;;10401529;28;20056;-84
2023/04/26 20:25:47;;;;;;;13.50;5.37;;;;;;;;;;10401810;28;20089;-84
2023/04/26 20:30:48;;;;;;;14.40;5.50;;;;;;;;;;10401464;28;20167;-86
2023/04/26 20:35:49;;;;;;;14.30;5.07;;;;;;;;;;10401845;28;20060;-85
2023/04/26 20:40:50;;;;;;;13.20;5.40;;;;;;;;;;10399879;28;20039;-86
2023/04/26 20:45:51;;;;;;;13.77;5.63;;;;;;;;;;10400584;28;20044;-85
2023/04/26 20:50:57;;;;;;;16.60;6.60;;;;;;;;;;10401580;28;20046;-86
2023/04/26 20:55:58;;;;;;;;;;;;;;;;;;10402067;28;20184;-85
2023/04/26 21:00:59;;;;;;;14.97;6.20;;;;;;;;;;10399618;28;19936;-85
2023/04/26 21:06:00;;;;;;;13.47;6.13;;;;;;;;;;10401229;28;20044;-85
2023/04/26 21:11:01;;;;;;;20.17;8.37;;;;;;;;;;10400635;28;20037;-85
2023/04/26 21:16:02;;;;;;;20.07;7.70;;;;;;;;;;10408499;28;20477;-85
2023/04/26 21:21:04;;;;;;;13.37;6.93;;;;;;;;;;10407568;28;20518;-85
2023/04/26 21:26:05;;;;;;;15.10;7.43;;;;;;;;;;10407888;28;20547;-85
2023/04/26 21:31:11;;;;;;;14.30;6.40;;;;;;;;;;10407124;28;20039;-85
2023/04/26 21:36:12;;;;;;;;;;;;;;;;;;10408946;28;20040;-85
2023/04/26 21:41:13;;;;;;;13.57;6.10;;;;;;;;;;10408648;28;20390;-85
2023/04/26 21:46:15;;;;;;;11.50;5.57;;;;;;;;;;10407262;28;20682;-85
2023/04/26 21:51:16;;;;;;;14.20;6.67;;;;;;;;;;10406761;28;20083;-85
2023/04/26 21:56:17;;;;;;;11.97;5.73;;;;;;;;;;10407815;28;20104;-85
2023/04/26 22:01:18;;;;;;;18.30;7.13;;;;;;;;;;10407082;28;20033;-85
2023/04/26 22:06:21;;;;;;;15.00;6.63;;;;;;;;;;10406999;28;20088;-86
2023/04/26 22:11:22;;;;;;;18.73;6.90;;;;;;;;;;10407190;28;20041;-85
2023/04/26 22:16:22;;;;;;;13.60;6.37;;;;;;;;;;10406388;28;20033;-85
2023/04/26 22:21:23;;;;;;;19.93;9.57;;;;;;;;;;10406133;28;20040;-85
2023/04/26 22:26:27;;;;;;;25.07;11.13;;;;;;;;;;10404883;28;20562;-85
2023/04/26 22:31:28;;;;;;;26.33;11.47;;;;;;;;;;10406417;28;20037;-85
2023/04/26 22:36:29;;;;;;;35.60;13.97;;;;;;;;;;10404452;28;20033;-86
2023/04/26 22:41:30;;;;;;;24.73;10.40;;;;;;;;;;10405552;28;20033;-85
2023/04/26 22:46:31;;;;;;;27.67;12.07;;;;;;;;;;10404942;28;20116;-85
2023/04/26 22:51:34;;;;;;;24.37;10.10;;;;;;;;;;10405738;28;20423;-85
2023/04/26 22:56:35;;;;;;;32.57;13.70;;;;;;;;;;10405240;28;20033;-85
2023/04/26 23:01:36;;;;;;;15.37;6.27;;;;;;;;;;10404073;28;20037;-85
2023/04/26 23:06:37;;;;;;;12.50;5.57;;;;;;;;;;10404670;28;20048;-85
2023/04/26 23:11:40;;;;;;;10.57;5.00;;;;;;;;;;10404535;28;20117;-85
2023/04/26 23:16:41;;;;;;;10.33;5.07;;;;;;;;;;10403941;28;20822;-86
2023/04/26 23:21:42;;;;;;;10.00;4.13;;;;;;;;;;10404562;28;20039;-85
2023/04/26 23:26:43;;;;;;;7.37;3.67;;;;;;;;;;10402271;28;20061;-86
2023/04/26 23:31:44;;;;;;;6.33;3.13;;;;;;;;;;10403404;28;20029;-85
2023/04/26 23:36:45;;;;;;;6.57;3.27;;;;;;;;;;10402945;28;20033;-85
2023/04/26 23:41:46;;;;;;;9.23;3.73;;;;;;;;;;10402590;28;20045;-86
2023/04/26 23:46:54;;;;;;;13.13;5.27;;;;;;;;;;10400930;28;20547;-87
2023/04/26 23:51:57;;;;;;;14.97;4.20;;;;;;;;;;10402823;28;20063;-86
2023/04/26 23:56:58;;;;;;;9.77;4.30;;;;;;;;;;10404054;28;20034;-86
